map of CNY home
CNY - Airport
Location
City:  Moab, Utah, United States
Name:Canyonlands Field
ICAO:KCNY
IATA:CNY
FAA LID:CNY

Details
Type:Airport (Part 139 Class I)
Use:Public/Civil
Latitude:3845'27"N (38.757499)
Longitude:10945'13"W (-109.753541)
Datum:WGS 1984
Elevation:4590 ft (1399 m)
Variation:10.18E (WMM2015 magnetic declination)
-0.10 annual change
Runways:2
Longest:7360 × 100 ft (2243 × 30.5 m), paved

Time
Time Zone:UTC-7 (DST-6)
Local Time:

Weather
METAR:KCNY 181953Z AUTO 29013KT 10SM CLR 04/M02 A3008 RMK AO2 SLP193 T00391022
TAF:KCNY 181739Z 1818/1918 29013KT P6SM SCT090
FM182200 29014G24KT P6SM FEW090
FM190100 29008KT P6SM SKC
FM190900 00000KT P6SM SKC

Related Locations
Nearby:
Farthest:RRG: 11059 mi / 17798 km
Plaine Corail [Sir Gatan Duval Airport (Plaine Corail Airport)], Rodrigues Island, MU

Find:

   beyond  
but within

Other Information
Maps:
NOTAMs:
Links:
Sources:

  
  • flag of United States
  • flag of Utah
  

Sectional Chart

Flight Planning
at skyvector.com

Satellite Image

Google Maps Satellite view

 

Copyright © 2004-2019 Karl L. Swartz. All rights reserved.
The Great Circle Mapper name and logo are trademarks of the Great Circle Mapper.
All other trademarks mentioned herein belong to their respective owners.
Please see credits for attibutions and further copyright information.

  Follow gcmap on Facebook Follow gcmap on Twitter Follow gcmap on Google+ GCmap on LinkedIn

hCard Microformat

Geo Microformat